Valtellina — ICKF — position and weather

sailwx.info

Track history (hours):
 
Tides and Currents Weather Stations Pressure Air Temp Water Temp Dewpoint Dewpoint Depression Visibility Wind Speed Wind Dir Waves Ship Positions

Valtellina

Last reported at 2015-Aug-01 07:29 UTC. Time now 2015-Aug-01 07:49 UTC.
Position N 44°25' E 008°50'.

Length 184 m; draft 10.9 m.

Type: Ship (hazmat cat A). MMSI: 247243900.

Date/timePositionNaut miles runAvg speedWind from/ knotsBaromVisibWave heightAir tempDewpointWater temp
2015-Aug-01 07:29N 44°25' E 008°50'0 0.0
2015-Aug-01 06:32N 44°25' E 008°50'0 0.0
2015-Aug-01 05:32N 44°25' E 008°50'0 0.0
2015-Aug-01 04:32N 44°25' E 008°50'0 0.0
2015-Aug-01 03:32N 44°25' E 008°50'0 0.0
2015-Aug-01 02:32N 44°25' E 008°50'0 0.0
2015-Aug-01 01:32N 44°25' E 008°50'0 0.0
2015-Aug-01 00:32N 44°25' E 008°50'0 0.0
2015-Jul-31 23:32N 44°25' E 008°50'0 0.0
2015-Jul-31 22:32N 44°25' E 008°50'0 0.0
2015-Jul-31 21:32N 44°25' E 008°50'0 0.0
2015-Jul-31 20:32N 44°25' E 008°50'0 0.0
2015-Jul-31 19:26N 44°25' E 008°50'0 0.0
2015-Jul-31 18:29N 44°25' E 008°50'0 0.0
2015-Jul-31 17:29N 44°25' E 008°50'0 0.0
2015-Jul-31 16:32N 44°25' E 008°50'0 0.0
2015-Jul-31 15:32N 44°25' E 008°50'0 0.0
2015-Jul-31 14:32N 44°25' E 008°50'0 0.0
2015-Jul-31 13:32N 44°25' E 008°50'0 0.0
2015-Jul-31 12:32N 44°25' E 008°50'0 0.0
2015-Jul-31 11:32N 44°25' E 008°50'0 0.0
2015-Jul-31 10:32N 44°25' E 008°50'0 0.0
2015-Jul-31 09:32N 44°25' E 008°50'0 0.0
2015-Jul-31 08:32N 44°25' E 008°50'0 0.0
2015-Jul-31 07:32N 44°25' E 008°50'0 0.0
2015-Jul-31 06:29N 44°25' E 008°50'0 0.0
2015-Jul-31 05:26N 44°25' E 008°50'0 0.0
2015-Jul-31 04:32N 44°25' E 008°50'0 0.0
2015-Jul-31 03:29N 44°25' E 008°50'0 0.0
2015-Jul-31 02:32N 44°25' E 008°50'0 0.0
2015-Jul-31 01:29N 44°25' E 008°50'0 0.0
2015-Jul-31 00:29N 44°25' E 008°50'0 0.0
2015-Jul-30 23:32N 44°25' E 008°50'0 0.0
2015-Jul-30 22:32N 44°25' E 008°50'0 0.0
2015-Jul-30 21:32N 44°25' E 008°50'0 0.0
2015-Jul-30 20:32N 44°25' E 008°50'0 0.0
2015-Jul-30 19:32N 44°25' E 008°50'0 0.0
2015-Jul-30 18:32N 44°25' E 008°50'0 0.0
2015-Jul-30 17:32N 44°25' E 008°50'0 0.0
2015-Jul-30 16:23N 44°25' E 008°50'0 0.0
2015-Jul-30 15:23N 44°25' E 008°50'0 0.0
2015-Jul-30 14:26N 44°25' E 008°50'0 0.0
2015-Jul-30 13:26N 44°25' E 008°50'0 0.0
2015-Jul-30 12:29N 44°25' E 008°50'0 0.0
2015-Jul-30 11:29N 44°25' E 008°50'0 0.0
2015-Jul-30 10:29N 44°25' E 008°50'0 0.0
2015-Jul-30 09:33N 44°25' E 008°50'3 2.6
2015-Jul-30 08:33N 44°24' E 008°47'1211.6
2015-Jul-30 07:33N 44°13' E 008°55'1312.9
2015-Jul-30 06:33N 44°02' E 009°03'1312.5
2015-Jul-30 05:33N 43°50' E 009°10'1212.1
2015-Jul-30 04:33N 43°39' E 009°17'1212.0
2015-Jul-30 03:34N 43°28' E 009°24'1211.9
2015-Jul-30 02:33N 43°18' E 009°30'1211.9
2015-Jul-30 01:33N 43°07' E 009°36'1212.3
2015-Jul-30 00:33N 42°55' E 009°42'1212.4
2015-Jul-29 23:33N 42°43' E 009°46'1212.4
2015-Jul-29 22:33N 42°31' E 009°51'1212.4
2015-Jul-29 21:33N 42°19' E 009°57'1312.9
2015-Jul-29 20:33N 42°07' E 009°57'1313.2
2015-Jul-29 19:33N 41°53' E 009°57'1312.9
2015-Jul-29 18:33N 41°40' E 009°57'1212.0
2015-Jul-29 17:33N 41°28' E 009°57'6212.2
2015-Jul-29 12:28N 40°27' E 009°56'6112.3
2015-Jul-29 07:33N 39°26' E 009°49'2311.6
2015-Jul-29 05:33N 39°04' E 009°41'1111.0
2015-Jul-29 04:31N 38°58' E 009°29'1212.5
2015-Jul-29 03:33N 39°01' E 009°14'9 8.9
2015-Jul-29 02:33N 39°04' E 009°04'0 0.1
2015-Jul-29 01:33N 39°04' E 009°04'0 0.0
2015-Jul-29 00:33N 39°04' E 009°04'0 0.0
2015-Jul-28 23:33N 39°04' E 009°04'1 1.4
2015-Jul-28 22:32N 39°05' E 009°02'0 0.0
2015-Jul-28 21:32N 39°05' E 009°02'0 0.0
2015-Jul-28 20:23N 39°05' E 009°02'0 0.0
2015-Jul-28 19:32N 39°05' E 009°02'0 0.0
2015-Jul-28 18:32N 39°05' E 009°02'0 0.0
2015-Jul-28 17:32N 39°05' E 009°02'0 0.0
2015-Jul-28 16:32N 39°05' E 009°02'0 0.0
2015-Jul-28 15:32N 39°05' E 009°02'0 0.0
2015-Jul-28 14:32N 39°05' E 009°02'0 0.0
2015-Jul-28 13:32N 39°05' E 009°02'0 0.0
2015-Jul-28 12:32N 39°05' E 009°02'0 0.0
2015-Jul-28 11:32N 39°05' E 009°02'0 0.0
2015-Jul-28 10:32N 39°05' E 009°02'0 0.0
2015-Jul-28 09:32N 39°05' E 009°02'0 0.0
2015-Jul-28 08:32N 39°05' E 009°02'0 0.0
2015-Jul-28 07:32N 39°05' E 009°02'0 0.0
2015-Jul-28 06:32N 39°05' E 009°02'0 0.0
2015-Jul-28 05:32N 39°05' E 009°02'0 0.0
2015-Jul-28 04:32N 39°05' E 009°02'0 0.0
2015-Jul-28 03:32N 39°05' E 009°02'0 0.0
2015-Jul-28 02:32N 39°05' E 009°02'0 0.0
2015-Jul-28 01:32N 39°05' E 009°02'0 0.0
2015-Jul-28 00:32N 39°05' E 009°02'0 0.0
2015-Jul-27 23:32N 39°05' E 009°02'0 0.0
2015-Jul-27 22:32N 39°05' E 009°02'0 0.0
2015-Jul-27 21:32N 39°05' E 009°02'1 0.9
2015-Jul-27 20:33N 39°05' E 009°03'9 9.4
2015-Jul-27 19:33N 38°58' E 009°12'1212.3
2015-Jul-27 18:33N 38°49' E 009°23'1212.4
2015-Jul-27 17:33N 38°40' E 009°33'1212.2
2015-Jul-27 16:33N 38°31' E 009°44'1412.8
2015-Jul-27 15:28N 38°21' E 009°56'1213.0
2015-Jul-27 14:33N 38°12' E 010°06'1313.1
2015-Jul-27 13:33N 38°02' E 010°18'6112.1
2015-Jul-27 08:33N 37°25' E 011°18'2612.5
2015-Jul-27 06:27N 37°09' E 011°44'2211.9
2015-Jul-27 04:33N 36°55' E 012°05'1211.8
2015-Jul-27 03:33N 36°45' E 012°14'1212.1
2015-Jul-27 02:33N 36°35' E 012°22'1212.4
2015-Jul-27 01:33N 36°25' E 012°31'1312.9
2015-Jul-27 00:33N 36°14' E 012°41'1312.9
2015-Jul-26 23:33N 36°04' E 012°50'1312.7
2015-Jul-26 22:33N 35°52' E 012°57'1312.6
2015-Jul-26 21:33N 35°40' E 012°57'1312.6
2015-Jul-26 20:33N 35°27' E 012°57'1312.8
2015-Jul-26 19:33N 35°14' E 012°56'1313.1
2015-Jul-26 18:33N 35°01' E 012°55'1313.1
2015-Jul-26 17:33N 34°48' E 012°54'1313.1
2015-Jul-26 16:33N 34°35' E 012°54'1313.0
2015-Jul-26 15:33N 34°22' E 012°53'1312.8
2015-Jul-26 14:33N 34°09' E 012°52'1312.9
2015-Jul-26 13:33N 33°57' E 012°52'1312.8
2015-Jul-26 12:33N 33°44' E 012°51'1312.7
2015-Jul-26 11:31N 33°31' E 012°48'1212.6
2015-Jul-26 10:33N 33°19' E 012°46'1312.6
2015-Jul-26 09:32N 33°06' E 012°43'1212.6
2015-Jul-26 08:33N 32°54' E 012°41'5 5.4
2015-Jul-26 07:33N 32°49' E 012°40'1 1.2
2015-Jul-26 06:26N 32°48' E 012°42'0 0.0
2015-Jul-25 00:17N 32°48' E 012°42'0 0.0
2015-Jul-24 20:05N 32°48' E 012°42'0 0.0
2015-Jul-24 10:31N 32°48' E 012°42'1 1.2
2015-Jul-24 09:33N 32°49' E 012°41'1 0.5
2015-Jul-24 08:27N 32°50' E 012°41'0 0.3
2015-Jul-24 07:31N 32°50' E 012°41'0 0.0
2015-Jul-24 05:10N 32°50' E 012°41'0 0.0
2015-Jul-24 03:28N 32°50' E 012°41'0 0.1
2015-Jul-24 02:25N 32°50' E 012°41'0 0.1
2015-Jul-23 23:31N 32°50' E 012°41'0 0.0
2015-Jul-23 21:28N 32°50' E 012°41'0 0.1
2015-Jul-23 20:31N 32°50' E 012°41'0 0.0
2015-Jul-23 19:31N 32°50' E 012°41'0 0.0
2015-Jul-23 18:31N 32°50' E 012°41'0 0.1
2015-Jul-23 17:31N 32°50' E 012°41'0 0.0
2015-Jul-23 16:31N 32°50' E 012°41'0 0.0
2015-Jul-23 15:31N 32°50' E 012°41'0 0.0
2015-Jul-23 14:31N 32°50' E 012°41'0 0.0
2015-Jul-23 13:31N 32°50' E 012°41'0 0.0
2015-Jul-23 12:31N 32°50' E 012°41'0 0.0
2015-Jul-23 11:31N 32°50' E 012°41'0 0.0
2015-Jul-23 10:31N 32°50' E 012°41'0 0.0
2015-Jul-23 09:31N 32°50' E 012°41'0 0.0
2015-Jul-23 08:28N 32°50' E 012°41'0 0.0
2015-Jul-23 07:22N 32°50' E 012°41'0 0.0
2015-Jul-23 05:13N 32°50' E 012°41'0 0.0
2015-Jul-23 04:31N 32°50' E 012°41'0 0.0
2015-Jul-23 01:07N 32°50' E 012°41'0 0.0
2015-Jul-23 00:31N 32°50' E 012°41'0 0.0
2015-Jul-22 23:31N 32°50' E 012°41'0 0.0
2015-Jul-22 22:31N 32°50' E 012°41'0 0.0
2015-Jul-22 21:31N 32°50' E 012°41'0 0.0
2015-Jul-22 20:25N 32°50' E 012°41'0 0.1
2015-Jul-22 19:31N 32°50' E 012°41'0 0.1
2015-Jul-22 18:31N 32°50' E 012°41'0 0.1
2015-Jul-22 17:31N 32°50' E 012°41'0 0.0
2015-Jul-22 16:31N 32°50' E 012°41'0 0.0
2015-Jul-22 15:31N 32°50' E 012°41'0 0.0
2015-Jul-22 14:28N 32°50' E 012°41'0 0.0
2015-Jul-22 13:31N 32°50' E 012°41'0 0.0
2015-Jul-22 12:31N 32°50' E 012°41'0 0.0
2015-Jul-22 11:31N 32°50' E 012°41'0 0.0
2015-Jul-22 10:31N 32°50' E 012°41'0 0.0
2015-Jul-22 09:31N 32°50' E 012°41'0 0.0
2015-Jul-22 08:31N 32°50' E 012°41'  
Track history (hours):
 
Tides and Currents Weather Stations Pressure Air Temp Water Temp Dewpoint Dewpoint Depression Visibility Wind Speed Wind Dir Waves Ship Positions

Valtellina

Last reported at 2015-Aug-01 07:29 UTC. Time now 2015-Aug-01 07:49 UTC.
Position N 44°25' E 008°50'.

Length 184 m; draft 10.9 m.

Type: Ship (hazmat cat A). MMSI: 247243900.

Date/timePositionNaut miles runAvg speedWind from/ knotsBaromVisibWave heightAir tempDewpointWater temp
2015-Aug-01 07:29N 44°25' E 008°50'0 0.0
2015-Aug-01 06:32N 44°25' E 008°50'0 0.0
2015-Aug-01 05:32N 44°25' E 008°50'0 0.0
2015-Aug-01 04:32N 44°25' E 008°50'0 0.0
2015-Aug-01 03:32N 44°25' E 008°50'0 0.0
2015-Aug-01 02:32N 44°25' E 008°50'0 0.0
2015-Aug-01 01:32N 44°25' E 008°50'0 0.0
2015-Aug-01 00:32N 44°25' E 008°50'0 0.0
2015-Jul-31 23:32N 44°25' E 008°50'0 0.0
2015-Jul-31 22:32N 44°25' E 008°50'0 0.0
2015-Jul-31 21:32N 44°25' E 008°50'0 0.0
2015-Jul-31 20:32N 44°25' E 008°50'0 0.0
2015-Jul-31 19:26N 44°25' E 008°50'0 0.0
2015-Jul-31 18:29N 44°25' E 008°50'0 0.0
2015-Jul-31 17:29N 44°25' E 008°50'0 0.0
2015-Jul-31 16:32N 44°25' E 008°50'0 0.0
2015-Jul-31 15:32N 44°25' E 008°50'0 0.0
2015-Jul-31 14:32N 44°25' E 008°50'0 0.0
2015-Jul-31 13:32N 44°25' E 008°50'0 0.0
2015-Jul-31 12:32N 44°25' E 008°50'0 0.0
2015-Jul-31 11:32N 44°25' E 008°50'0 0.0
2015-Jul-31 10:32N 44°25' E 008°50'0 0.0
2015-Jul-31 09:32N 44°25' E 008°50'0 0.0
2015-Jul-31 08:32N 44°25' E 008°50'0 0.0
2015-Jul-31 07:32N 44°25' E 008°50'0 0.0
2015-Jul-31 06:29N 44°25' E 008°50'0 0.0
2015-Jul-31 05:26N 44°25' E 008°50'0 0.0
2015-Jul-31 04:32N 44°25' E 008°50'0 0.0
2015-Jul-31 03:29N 44°25' E 008°50'0 0.0
2015-Jul-31 02:32N 44°25' E 008°50'0 0.0
2015-Jul-31 01:29N 44°25' E 008°50'0 0.0
2015-Jul-31 00:29N 44°25' E 008°50'0 0.0
2015-Jul-30 23:32N 44°25' E 008°50'0 0.0
2015-Jul-30 22:32N 44°25' E 008°50'0 0.0
2015-Jul-30 21:32N 44°25' E 008°50'0 0.0
2015-Jul-30 20:32N 44°25' E 008°50'0 0.0
2015-Jul-30 19:32N 44°25' E 008°50'0 0.0
2015-Jul-30 18:32N 44°25' E 008°50'0 0.0
2015-Jul-30 17:32N 44°25' E 008°50'0 0.0
2015-Jul-30 16:23N 44°25' E 008°50'0 0.0
2015-Jul-30 15:23N 44°25' E 008°50'0 0.0
2015-Jul-30 14:26N 44°25' E 008°50'0 0.0
2015-Jul-30 13:26N 44°25' E 008°50'0 0.0
2015-Jul-30 12:29N 44°25' E 008°50'0 0.0
2015-Jul-30 11:29N 44°25' E 008°50'0 0.0
2015-Jul-30 10:29N 44°25' E 008°50'0 0.0
2015-Jul-30 09:33N 44°25' E 008°50'3 2.6
2015-Jul-30 08:33N 44°24' E 008°47'1211.6
2015-Jul-30 07:33N 44°13' E 008°55'1312.9
2015-Jul-30 06:33N 44°02' E 009°03'1312.5
2015-Jul-30 05:33N 43°50' E 009°10'1212.1
2015-Jul-30 04:33N 43°39' E 009°17'1212.0
2015-Jul-30 03:34N 43°28' E 009°24'1211.9
2015-Jul-30 02:33N 43°18' E 009°30'1211.9
2015-Jul-30 01:33N 43°07' E 009°36'1212.3
2015-Jul-30 00:33N 42°55' E 009°42'1212.4
2015-Jul-29 23:33N 42°43' E 009°46'1212.4
2015-Jul-29 22:33N 42°31' E 009°51'1212.4
2015-Jul-29 21:33N 42°19' E 009°57'1312.9
2015-Jul-29 20:33N 42°07' E 009°57'1313.2
2015-Jul-29 19:33N 41°53' E 009°57'1312.9
2015-Jul-29 18:33N 41°40' E 009°57'1212.0
2015-Jul-29 17:33N 41°28' E 009°57'6212.2
2015-Jul-29 12:28N 40°27' E 009°56'6112.3
2015-Jul-29 07:33N 39°26' E 009°49'2311.6
2015-Jul-29 05:33N 39°04' E 009°41'1111.0
2015-Jul-29 04:31N 38°58' E 009°29'1212.5
2015-Jul-29 03:33N 39°01' E 009°14'9 8.9
2015-Jul-29 02:33N 39°04' E 009°04'0 0.1
2015-Jul-29 01:33N 39°04' E 009°04'0 0.0
2015-Jul-29 00:33N 39°04' E 009°04'0 0.0
2015-Jul-28 23:33N 39°04' E 009°04'1 1.4
2015-Jul-28 22:32N 39°05' E 009°02'0 0.0
2015-Jul-28 21:32N 39°05' E 009°02'0 0.0
2015-Jul-28 20:23N 39°05' E 009°02'0 0.0
2015-Jul-28 19:32N 39°05' E 009°02'0 0.0
2015-Jul-28 18:32N 39°05' E 009°02'0 0.0
2015-Jul-28 17:32N 39°05' E 009°02'0 0.0
2015-Jul-28 16:32N 39°05' E 009°02'0 0.0
2015-Jul-28 15:32N 39°05' E 009°02'0 0.0
2015-Jul-28 14:32N 39°05' E 009°02'0 0.0
2015-Jul-28 13:32N 39°05' E 009°02'0 0.0
2015-Jul-28 12:32N 39°05' E 009°02'0 0.0
2015-Jul-28 11:32N 39°05' E 009°02'0 0.0
2015-Jul-28 10:32N 39°05' E 009°02'0 0.0
2015-Jul-28 09:32N 39°05' E 009°02'0 0.0
2015-Jul-28 08:32N 39°05' E 009°02'0 0.0
2015-Jul-28 07:32N 39°05' E 009°02'0 0.0
2015-Jul-28 06:32N 39°05' E 009°02'0 0.0
2015-Jul-28 05:32N 39°05' E 009°02'0 0.0
2015-Jul-28 04:32N 39°05' E 009°02'0 0.0
2015-Jul-28 03:32N 39°05' E 009°02'0 0.0
2015-Jul-28 02:32N 39°05' E 009°02'0 0.0
2015-Jul-28 01:32N 39°05' E 009°02'0 0.0
2015-Jul-28 00:32N 39°05' E 009°02'0 0.0
2015-Jul-27 23:32N 39°05' E 009°02'0 0.0
2015-Jul-27 22:32N 39°05' E 009°02'0 0.0
2015-Jul-27 21:32N 39°05' E 009°02'1 0.9
2015-Jul-27 20:33N 39°05' E 009°03'9 9.4
2015-Jul-27 19:33N 38°58' E 009°12'1212.3
2015-Jul-27 18:33N 38°49' E 009°23'1212.4
2015-Jul-27 17:33N 38°40' E 009°33'1212.2
2015-Jul-27 16:33N 38°31' E 009°44'1412.8
2015-Jul-27 15:28N 38°21' E 009°56'1213.0
2015-Jul-27 14:33N 38°12' E 010°06'1313.1
2015-Jul-27 13:33N 38°02' E 010°18'6112.1
2015-Jul-27 08:33N 37°25' E 011°18'2612.5
2015-Jul-27 06:27N 37°09' E 011°44'2211.9
2015-Jul-27 04:33N 36°55' E 012°05'1211.8
2015-Jul-27 03:33N 36°45' E 012°14'1212.1
2015-Jul-27 02:33N 36°35' E 012°22'1212.4
2015-Jul-27 01:33N 36°25' E 012°31'1312.9
2015-Jul-27 00:33N 36°14' E 012°41'1312.9
2015-Jul-26 23:33N 36°04' E 012°50'1312.7
2015-Jul-26 22:33N 35°52' E 012°57'1312.6
2015-Jul-26 21:33N 35°40' E 012°57'1312.6
2015-Jul-26 20:33N 35°27' E 012°57'1312.8
2015-Jul-26 19:33N 35°14' E 012°56'1313.1
2015-Jul-26 18:33N 35°01' E 012°55'1313.1
2015-Jul-26 17:33N 34°48' E 012°54'1313.1
2015-Jul-26 16:33N 34°35' E 012°54'1313.0
2015-Jul-26 15:33N 34°22' E 012°53'1312.8
2015-Jul-26 14:33N 34°09' E 012°52'1312.9
2015-Jul-26 13:33N 33°57' E 012°52'1312.8
2015-Jul-26 12:33N 33°44' E 012°51'1312.7
2015-Jul-26 11:31N 33°31' E 012°48'1212.6
2015-Jul-26 10:33N 33°19' E 012°46'1312.6
2015-Jul-26 09:32N 33°06' E 012°43'1212.6
2015-Jul-26 08:33N 32°54' E 012°41'5 5.4
2015-Jul-26 07:33N 32°49' E 012°40'1 1.2
2015-Jul-26 06:26N 32°48' E 012°42'0 0.0
2015-Jul-25 00:17N 32°48' E 012°42'0 0.0
2015-Jul-24 20:05N 32°48' E 012°42'0 0.0
2015-Jul-24 10:31N 32°48' E 012°42'1 1.2
2015-Jul-24 09:33N 32°49' E 012°41'1 0.5
2015-Jul-24 08:27N 32°50' E 012°41'0 0.3
2015-Jul-24 07:31N 32°50' E 012°41'0 0.0
2015-Jul-24 05:10N 32°50' E 012°41'0 0.0
2015-Jul-24 03:28N 32°50' E 012°41'0 0.1
2015-Jul-24 02:25N 32°50' E 012°41'0 0.1
2015-Jul-23 23:31N 32°50' E 012°41'0 0.0
2015-Jul-23 21:28N 32°50' E 012°41'0 0.1
2015-Jul-23 20:31N 32°50' E 012°41'0 0.0
2015-Jul-23 19:31N 32°50' E 012°41'0 0.0
2015-Jul-23 18:31N 32°50' E 012°41'0 0.1
2015-Jul-23 17:31N 32°50' E 012°41'0 0.0
2015-Jul-23 16:31N 32°50' E 012°41'0 0.0
2015-Jul-23 15:31N 32°50' E 012°41'0 0.0
2015-Jul-23 14:31N 32°50' E 012°41'0 0.0
2015-Jul-23 13:31N 32°50' E 012°41'0 0.0
2015-Jul-23 12:31N 32°50' E 012°41'0 0.0
2015-Jul-23 11:31N 32°50' E 012°41'0 0.0
2015-Jul-23 10:31N 32°50' E 012°41'0 0.0
2015-Jul-23 09:31N 32°50' E 012°41'0 0.0
2015-Jul-23 08:28N 32°50' E 012°41'0 0.0
2015-Jul-23 07:22N 32°50' E 012°41'0 0.0
2015-Jul-23 05:13N 32°50' E 012°41'0 0.0
2015-Jul-23 04:31N 32°50' E 012°41'0 0.0
2015-Jul-23 01:07N 32°50' E 012°41'0 0.0
2015-Jul-23 00:31N 32°50' E 012°41'0 0.0
2015-Jul-22 23:31N 32°50' E 012°41'0 0.0
2015-Jul-22 22:31N 32°50' E 012°41'0 0.0
2015-Jul-22 21:31N 32°50' E 012°41'0 0.0
2015-Jul-22 20:25N 32°50' E 012°41'0 0.1
2015-Jul-22 19:31N 32°50' E 012°41'0 0.1
2015-Jul-22 18:31N 32°50' E 012°41'0 0.1
2015-Jul-22 17:31N 32°50' E 012°41'0 0.0
2015-Jul-22 16:31N 32°50' E 012°41'0 0.0
2015-Jul-22 15:31N 32°50' E 012°41'0 0.0
2015-Jul-22 14:28N 32°50' E 012°41'0 0.0
2015-Jul-22 13:31N 32°50' E 012°41'0 0.0
2015-Jul-22 12:31N 32°50' E 012°41'0 0.0
2015-Jul-22 11:31N 32°50' E 012°41'0 0.0
2015-Jul-22 10:31N 32°50' E 012°41'0 0.0
2015-Jul-22 09:31N 32°50' E 012°41'0 0.0
2015-Jul-22 08:31N 32°50' E 012°41'  

Dump ship's entire track history